createdAt,value
2018-04-22T00:00:54.397Z,82.00
2018-04-22T00:01:55.332Z,81.90
2018-04-22T00:02:55.325Z,82.00
2018-04-22T00:03:55.327Z,81.52
2018-04-22T00:05:16.327Z,81.43
2018-04-22T00:07:27.072Z,81.71
2018-04-22T00:08:27.080Z,81.71
2018-04-22T00:09:27.084Z,82.29
2018-04-22T00:10:29.586Z,81.90
2018-04-22T00:13:00.426Z,82.00
2018-04-22T00:14:19.963Z,82.09
2018-04-22T00:15:00.396Z,82.09
2018-04-22T00:15:58.966Z,82.00
2018-04-22T00:17:01.404Z,81.90
2018-04-22T00:18:13.468Z,81.90
2018-04-22T00:19:13.470Z,81.81
2018-04-22T00:21:30.859Z,80.76
2018-04-22T00:22:30.866Z,80.76
2018-04-22T00:23:30.871Z,81.52
2018-04-22T00:24:52.366Z,81.90
2018-04-22T00:25:31.366Z,81.04
2018-04-22T00:26:31.364Z,80.66
2018-04-22T00:27:31.366Z,81.14
2018-04-22T00:30:24.108Z,80.85
2018-04-22T00:31:03.152Z,80.85
2018-04-22T00:32:04.611Z,80.85
2018-04-22T00:33:03.616Z,80.76
2018-04-22T00:35:35.486Z,81.04
2018-04-22T00:36:56.499Z,80.57
2018-04-22T00:37:34.965Z,80.66
2018-04-22T00:40:07.275Z,80.57
2018-04-22T00:41:07.216Z,81.04
2018-04-22T00:42:07.215Z,80.57
2018-04-22T00:43:07.710Z,81.24
2018-04-22T00:44:28.716Z,81.04
2018-04-22T00:45:28.716Z,81.24
2018-04-22T00:47:39.331Z,81.01
2018-04-22T00:48:39.342Z,80.85
2018-04-22T00:49:39.373Z,81.38
2018-04-22T00:52:32.116Z,81.33
2018-04-22T00:53:32.123Z,81.38
2018-04-22T00:54:33.555Z,81.10
2018-04-22T00:55:32.622Z,81.58
2018-04-22T00:56:32.623Z,82.24
2018-04-22T00:57:11.623Z,82.82
2018-04-22T00:58:11.623Z,82.34
2018-04-22T00:59:18.126Z,82.43
2018-04-22T01:00:12.134Z,82.53
2018-04-22T01:01:12.123Z,81.86
2018-04-22T01:02:12.125Z,81.77
2018-04-22T01:03:32.703Z,81.48
2018-04-22T01:04:33.624Z,81.77
2018-04-22T01:05:26.623Z,82.34
2018-04-22T01:06:32.957Z,82.24
2018-04-22T01:07:33.623Z,82.72
2018-04-22T01:08:14.085Z,82.43
2018-04-22T01:10:44.333Z,82.63
2018-04-22T01:13:15.825Z,81.58
2018-04-22T01:14:15.833Z,82.63
2018-04-22T01:15:15.832Z,82.82
2018-04-22T01:17:50.604Z,83.39
2018-04-22T01:18:51.618Z,83.20
2018-04-22T01:19:50.052Z,83.29
2018-04-22T01:20:48.608Z,83.01
2018-04-22T01:21:50.610Z,82.91
2018-04-22T01:23:11.075Z,83.11
2018-04-22T01:23:49.120Z,83.11
2018-04-22T01:26:20.487Z,83.39
2018-04-22T01:27:20.495Z,83.01
2018-04-22T01:28:20.495Z,82.82
2018-04-22T01:29:22.994Z,83.39
2018-04-22T01:30:41.196Z,83.11
2018-04-22T01:31:41.997Z,83.01
2018-04-22T01:32:22.473Z,83.11
2018-04-22T01:33:20.995Z,83.29
2018-04-22T01:37:46.956Z,83.20
2018-04-22T01:38:24.502Z,82.82
2018-04-22T01:39:24.502Z,83.01
2018-04-22T01:42:17.255Z,82.72
2018-04-22T01:43:17.262Z,82.53
2018-04-22T01:43:56.762Z,82.72
2018-04-22T01:46:28.014Z,82.24
2018-04-22T01:47:27.362Z,82.34
2018-04-22T01:48:28.021Z,81.67
2018-04-22T01:49:28.525Z,81.29
2018-04-22T01:50:28.530Z,81.29
2018-04-22T01:51:28.550Z,81.48
2018-04-22T01:52:49.521Z,81.20
2018-04-22T01:53:29.021Z,81.58
2018-04-22T01:54:29.020Z,81.20
2018-04-22T01:55:50.020Z,82.06
2018-04-22T01:56:29.018Z,81.96
2018-04-22T01:57:43.528Z,81.67
2018-04-22T01:58:29.517Z,82.72
2018-04-22T01:59:28.874Z,82.63
2018-04-22T02:00:29.530Z,81.96
2018-04-22T02:01:31.473Z,82.15
2018-04-22T02:02:30.019Z,81.58
2018-04-22T02:03:30.019Z,81.58
2018-04-22T02:04:30.019Z,81.86
2018-04-22T02:05:30.052Z,82.15
2018-04-22T02:06:32.473Z,82.72
2018-04-22T02:07:29.696Z,82.24
2018-04-22T02:08:30.518Z,82.53
2018-04-22T02:09:30.518Z,81.77
2018-04-22T02:10:30.520Z,81.67
2018-04-22T02:11:31.018Z,81.67
2018-04-22T02:12:31.017Z,81.96
2018-04-22T02:13:31.024Z,82.34
2018-04-22T02:14:31.018Z,82.53
2018-04-22T02:15:31.517Z,82.72
2018-04-22T02:18:25.365Z,81.77
2018-04-22T02:19:02.268Z,82.43
2018-04-22T02:21:02.933Z,83.16
2018-04-22T02:22:03.434Z,83.20
2018-04-22T02:23:04.440Z,82.87
2018-04-22T02:24:25.876Z,82.97
2018-04-22T02:25:03.432Z,83.06
2018-04-22T02:26:04.431Z,82.68
2018-04-22T02:27:26.932Z,82.59
2018-04-22T02:28:03.932Z,82.30
2018-04-22T02:29:03.932Z,81.82
2018-04-22T02:30:03.943Z,81.82
2018-04-22T02:32:35.685Z,83.06
2018-04-22T02:33:35.697Z,83.06
2018-04-22T02:34:37.156Z,83.64
2018-04-22T02:35:42.195Z,83.64
2018-04-22T02:36:57.188Z,82.30
2018-04-22T02:39:28.709Z,81.54
2018-04-22T02:42:00.198Z,82.68
2018-04-22T02:42:39.206Z,82.30
2018-04-22T02:43:39.226Z,82.68
2018-04-22T02:46:33.896Z,83.06
2018-04-22T02:47:11.955Z,82.97
2018-04-22T02:48:10.954Z,83.16
2018-04-22T02:49:13.454Z,82.97
2018-04-22T02:50:11.457Z,82.49
2018-04-22T02:51:11.454Z,82.49
2018-04-22T02:52:11.468Z,82.87
2018-04-22T02:53:11.953Z,83.25
2018-04-22T02:54:25.953Z,83.54
2018-04-22T02:55:11.955Z,82.97
2018-04-22T02:57:43.570Z,82.97
2018-04-22T02:58:43.575Z,82.68
2018-04-22T02:59:45.516Z,81.92
2018-04-22T03:02:15.390Z,82.01
2018-04-22T03:03:15.399Z,81.92
2018-04-22T03:04:15.399Z,81.92
2018-04-22T03:08:39.572Z,82.20
2018-04-22T03:09:17.942Z,83.16
2018-04-22T03:10:39.580Z,83.44
2018-04-22T03:14:25.191Z,83.44
2018-04-22T03:15:21.758Z,83.54
2018-04-22T03:16:21.764Z,83.44
2018-04-22T03:17:29.255Z,82.97
2018-04-22T03:19:53.628Z,83.06
2018-04-22T03:20:52.976Z,83.16
2018-04-22T03:21:53.630Z,83.16
2018-04-22T03:24:27.371Z,81.82
2018-04-22T03:25:48.378Z,82.49
2018-04-22T03:26:46.378Z,82.68
2018-04-22T03:27:31.884Z,83.44
2018-04-22T03:28:25.887Z,82.97
2018-04-22T03:29:25.878Z,83.25
2018-04-22T03:30:25.879Z,82.87
2018-04-22T03:31:46.483Z,83.25
2018-04-22T03:32:28.377Z,82.97
2018-04-22T03:33:26.378Z,83.16
2018-04-22T03:34:28.386Z,83.35
2018-04-22T03:36:58.115Z,83.06
2018-04-22T03:37:58.121Z,83.06
2018-04-22T03:38:58.123Z,82.87
2018-04-22T03:40:19.617Z,83.35
2018-04-22T03:41:19.626Z,83.06
2018-04-22T03:41:58.623Z,83.16
2018-04-22T03:42:58.623Z,83.54
2018-04-22T03:45:51.361Z,84.07
2018-04-22T03:46:30.375Z,83.97
2018-04-22T03:47:30.368Z,84.16
2018-04-22T03:49:30.868Z,84.07
2018-04-22T03:50:51.194Z,83.78
2018-04-22T03:51:30.909Z,83.88
2018-04-22T03:52:30.377Z,84.26
2018-04-22T03:53:31.369Z,84.16
2018-04-22T03:54:31.368Z,84.55
2018-04-22T03:55:31.369Z,83.88
2018-04-22T03:58:04.984Z,82.83
2018-04-22T03:59:02.991Z,82.45
2018-04-22T04:00:23.991Z,82.83
2018-04-22T04:01:04.454Z,82.83
2018-04-22T04:02:24.490Z,82.78
2018-04-22T04:03:03.490Z,83.59
2018-04-22T04:04:04.950Z,83.69
2018-04-22T04:05:30.423Z,83.88
2018-04-22T04:06:26.447Z,84.26
2018-04-22T04:07:26.422Z,84.07
2018-04-22T04:08:03.991Z,84.16
2018-04-22T04:10:41.745Z,83.97
2018-04-22T04:11:35.749Z,84.07
2018-04-22T04:12:41.751Z,84.16
2018-04-22T04:15:08.936Z,84.92
2018-04-22T04:16:07.519Z,85.02
2018-04-22T04:17:07.499Z,84.26
2018-04-22T04:18:08.013Z,83.50
2018-04-22T04:20:41.378Z,83.40
2018-04-22T04:23:31.915Z,83.02
2018-04-22T04:24:10.921Z,82.92
2018-04-22T04:25:12.388Z,82.83
2018-04-22T04:26:34.414Z,83.21
2018-04-22T04:27:32.413Z,83.88
2018-04-22T04:28:32.425Z,83.31
2018-04-22T04:29:11.413Z,82.83
2018-04-22T04:31:43.198Z,83.59
2018-04-22T04:32:43.172Z,83.31
2018-04-22T04:33:43.171Z,83.21
2018-04-22T04:36:14.924Z,82.64
2018-04-22T04:37:18.362Z,82.26
2018-04-22T04:38:14.929Z,82.64
2018-04-22T04:39:15.433Z,82.54
2018-04-22T04:40:15.431Z,82.35
2018-04-22T04:41:15.427Z,82.64
2018-04-22T04:42:15.429Z,83.21
2018-04-22T04:46:20.098Z,83.50
2018-04-22T04:47:32.641Z,83.31
2018-04-22T04:48:19.640Z,84.26
2018-04-22T04:49:19.139Z,83.78
2018-04-22T04:52:11.515Z,84.07
2018-04-22T04:52:50.521Z,84.16
2018-04-22T04:53:51.519Z,84.92
2018-04-22T04:55:12.027Z,84.45
2018-04-22T04:55:51.023Z,84.45
2018-04-22T04:56:51.020Z,83.97
2018-04-22T04:57:51.021Z,83.69
2018-04-22T04:58:50.620Z,84.26
2018-04-22T04:59:51.519Z,83.83
2018-04-22T05:00:50.874Z,83.88
2018-04-22T05:01:51.521Z,84.55
2018-04-22T05:02:51.116Z,84.36
2018-04-22T05:03:52.025Z,84.64
2018-04-22T05:04:52.032Z,84.78
2018-04-22T05:05:52.519Z,84.97
2018-04-22T05:08:45.760Z,83.83
2018-04-22T05:09:23.767Z,84.01
2018-04-22T05:10:44.767Z,84.01
2018-04-22T05:12:55.545Z,84.20
2018-04-22T05:15:27.037Z,84.40
2018-04-22T05:16:27.044Z,84.78
2018-04-22T05:17:27.043Z,84.40
2018-04-22T05:21:44.702Z,84.30
2018-04-22T05:22:30.709Z,83.92
2018-04-22T05:23:30.710Z,83.92
2018-04-22T05:24:31.205Z,83.92
2018-04-22T05:25:33.209Z,84.30
2018-04-22T05:26:31.231Z,84.69
2018-04-22T05:27:31.209Z,84.88
2018-04-22T05:28:52.715Z,84.49
2018-04-22T05:29:31.709Z,84.20
2018-04-22T05:30:31.709Z,84.88
2018-04-22T05:31:35.644Z,84.88
2018-04-22T05:32:31.324Z,85.06
2018-04-22T05:33:32.214Z,85.25
2018-04-22T05:34:32.213Z,84.72
2018-04-22T05:35:32.217Z,85.11
2018-04-22T05:36:53.709Z,85.11
2018-04-22T05:37:31.941Z,84.82
2018-04-22T05:38:32.715Z,84.53
2018-04-22T05:39:32.712Z,84.82
2018-04-22T05:40:33.209Z,84.44
2018-04-22T05:41:32.490Z,84.63
2018-04-22T05:42:54.208Z,84.53
2018-04-22T05:43:33.208Z,83.77
2018-04-22T05:44:33.713Z,84.25
2018-04-22T05:45:33.708Z,84.25
2018-04-22T05:46:33.709Z,83.87
2018-04-22T05:47:35.140Z,84.63
2018-04-22T05:50:05.460Z,84.00
2018-04-22T05:51:05.460Z,84.20
2018-04-22T05:52:05.474Z,83.81
2018-04-22T05:53:05.967Z,84.10
2018-04-22T05:54:05.967Z,84.00
2018-04-22T05:55:05.977Z,84.20
2018-04-22T05:56:05.967Z,84.00
2018-04-22T05:57:08.481Z,84.39
2018-04-22T05:58:06.464Z,84.10
2018-04-22T05:59:06.477Z,84.48
2018-04-22T06:00:06.467Z,84.10
2018-04-22T06:01:08.899Z,84.05
2018-04-22T06:02:27.167Z,84.23
2018-04-22T06:03:06.967Z,84.05
2018-04-22T06:04:27.967Z,83.67
2018-04-22T06:05:06.968Z,83.38
2018-04-22T06:08:01.708Z,83.86
2018-04-22T06:08:39.789Z,83.51
2018-04-22T06:09:38.717Z,83.51
2018-04-22T06:10:41.217Z,83.80
2018-04-22T06:12:02.221Z,83.13
2018-04-22T06:12:39.217Z,83.13
2018-04-22T06:14:02.223Z,82.79
2018-04-22T06:14:39.717Z,82.46
2018-04-22T06:15:39.716Z,82.70
2018-04-22T06:16:41.153Z,83.17
2018-04-22T06:17:39.717Z,82.89
2018-04-22T06:20:11.462Z,82.60
2018-04-22T06:21:11.469Z,82.79
2018-04-22T06:23:42.491Z,82.70
2018-04-22T06:24:43.222Z,82.79
2018-04-22T06:25:43.226Z,82.60
2018-04-22T06:28:15.034Z,82.60
2018-04-22T06:29:14.989Z,82.79
2018-04-22T06:30:14.996Z,82.41
2018-04-22T06:31:15.491Z,81.84
2018-04-22T06:32:15.493Z,81.97
2018-04-22T06:33:15.497Z,81.88
2018-04-22T06:34:15.499Z,81.68
2018-04-22T06:35:17.425Z,81.02
2018-04-22T06:36:15.991Z,80.06
2018-04-22T06:37:36.279Z,80.73
2018-04-22T06:38:16.924Z,80.73
2018-04-22T06:39:15.992Z,79.87
2018-04-22T06:40:42.924Z,80.00
2018-04-22T06:41:16.490Z,80.29
2018-04-22T06:42:23.963Z,79.81
2018-04-22T06:43:16.492Z,80.10
2018-04-22T06:45:48.240Z,78.95
2018-04-22T06:46:48.255Z,78.57
2018-04-22T06:47:48.245Z,78.80
2018-04-22T06:50:42.459Z,78.42
2018-04-22T06:51:20.026Z,77.36
2018-04-22T06:52:20.033Z,76.98
2018-04-22T06:56:44.528Z,76.40
2018-04-22T06:57:44.526Z,76.12
2018-04-22T06:58:23.526Z,75.87
2018-04-22T06:59:24.023Z,76.54
2018-04-22T07:01:55.436Z,75.77
2018-04-22T07:02:55.450Z,76.06
2018-04-22T07:04:16.439Z,74.82
2018-04-22T07:04:55.940Z,74.05
2018-04-22T07:05:55.939Z,74.15
2018-04-22T07:07:16.939Z,74.15
2018-04-22T07:07:55.940Z,73.86
2018-04-22T07:08:57.902Z,74.66
2018-04-22T07:09:56.440Z,74.18
2018-04-22T07:11:17.438Z,73.90
2018-04-22T07:11:56.439Z,74.76
2018-04-22T07:14:49.186Z,73.70
2018-04-22T07:15:30.125Z,73.61
2018-04-22T07:16:28.196Z,73.70
2018-04-22T07:17:28.698Z,72.94
2018-04-22T07:18:28.703Z,72.74
2018-04-22T07:19:28.696Z,74.08
2018-04-22T07:20:28.735Z,73.16
2018-04-22T07:21:29.193Z,72.20
2018-04-22T07:22:28.416Z,71.34
2018-04-22T07:23:50.195Z,71.66
2018-04-22T07:24:29.193Z,72.97
2018-04-22T07:27:08.951Z,70.42
2018-04-22T07:29:53.453Z,72.14
2018-04-22T07:30:32.461Z,72.05
2018-04-22T07:31:53.462Z,70.45
2018-04-22T07:35:35.671Z,70.17
2018-04-22T07:36:56.679Z,69.49
2018-04-22T07:37:56.679Z,69.01
2018-04-22T07:40:07.427Z,68.85
2018-04-22T07:41:07.434Z,68.47
2018-04-22T07:42:07.429Z,67.99
2018-04-22T07:43:28.044Z,68.08
2018-04-22T07:44:09.366Z,69.05
2018-04-22T07:48:13.583Z,67.54
2018-04-22T07:49:13.083Z,68.51
2018-04-22T07:50:32.651Z,67.83
2018-04-22T07:51:12.157Z,67.25
2018-04-22T07:52:33.160Z,66.68
2018-04-22T07:53:12.152Z,66.97
2018-04-22T07:54:39.150Z,67.48
2018-04-22T07:56:43.899Z,66.23
2018-04-22T07:58:04.904Z,65.56
2018-04-22T07:59:04.907Z,64.73
2018-04-22T07:59:44.410Z,63.86
2018-04-22T08:00:44.416Z,63.67
2018-04-22T08:01:44.403Z,64.43
2018-04-22T08:02:44.405Z,63.86
2018-04-22T08:03:44.955Z,63.67
2018-04-22T08:04:44.904Z,64.92
2018-04-22T08:05:44.904Z,65.30
2018-04-22T08:06:44.913Z,64.43
2018-04-22T08:07:44.905Z,63.89
2018-04-22T08:09:06.408Z,63.31
2018-04-22T08:09:45.403Z,63.60
2018-04-22T08:11:06.401Z,63.70
2018-04-22T08:11:45.404Z,62.54
2018-04-22T08:13:07.867Z,62.16
2018-04-22T08:13:45.906Z,62.83
2018-04-22T08:15:06.241Z,62.45
2018-04-22T08:15:45.904Z,62.64
2018-04-22T08:17:09.412Z,61.97
2018-04-22T08:18:06.618Z,62.00
2018-04-22T08:20:17.870Z,60.94
2018-04-22T08:21:17.878Z,60.84
2018-04-22T08:23:49.640Z,60.87
2018-04-22T08:25:10.647Z,60.17
2018-04-22T08:25:49.647Z,59.97
2018-04-22T08:27:10.264Z,59.88
2018-04-22T08:27:51.120Z,60.27
2018-04-22T08:28:50.146Z,60.65
2018-04-22T08:29:50.149Z,61.13
2018-04-22T08:30:50.647Z,61.10
2018-04-22T08:31:50.665Z,62.16
2018-04-22T08:32:50.650Z,62.41
2018-04-22T08:33:50.653Z,62.51
2018-04-22T08:34:57.149Z,63.67
2018-04-22T08:35:50.370Z,63.22
2018-04-22T08:36:50.470Z,63.79
2018-04-22T08:37:51.147Z,62.93
2018-04-22T08:38:50.626Z,62.93
2018-04-22T08:41:22.872Z,62.26
2018-04-22T08:42:22.225Z,61.42
2018-04-22T08:43:22.878Z,62.19
2018-04-22T08:44:44.389Z,61.71
2018-04-22T08:45:44.376Z,61.13
2018-04-22T08:46:44.378Z,60.00
2018-04-22T08:47:44.380Z,60.68
2018-04-22T08:50:01.162Z,58.11
2018-04-22T08:51:16.183Z,59.55
2018-04-22T08:51:55.167Z,58.59
2018-04-22T08:53:16.674Z,60.83
2018-04-22T08:53:55.667Z,60.16
2018-04-22T08:54:55.663Z,58.23
2018-04-22T08:56:16.667Z,57.75
2018-04-22T08:57:10.179Z,57.07
2018-04-22T08:58:16.388Z,55.34
2018-04-22T08:58:56.167Z,55.54
2018-04-22T09:00:17.169Z,54.47
2018-04-22T09:00:55.776Z,54.76
2018-04-22T09:01:57.658Z,55.24
2018-04-22T09:03:17.667Z,56.88
2018-04-22T09:04:56.167Z,56.52
2018-04-22T09:05:56.667Z,57.78
2018-04-22T09:06:56.668Z,56.43
2018-04-22T09:07:56.676Z,56.43
2018-04-22T09:08:56.674Z,55.08
2018-04-22T09:10:18.167Z,55.27
2018-04-22T09:10:57.167Z,56.36
2018-04-22T09:11:57.175Z,56.56
2018-04-22T09:12:57.167Z,57.04
2018-04-22T09:13:57.739Z,55.68
2018-04-22T09:14:57.667Z,55.10
2018-04-22T09:15:57.669Z,54.55
2018-04-22T09:16:57.668Z,55.23
2018-04-22T09:17:57.647Z,55.81
2018-04-22T09:18:58.167Z,55.07
2018-04-22T09:19:58.167Z,54.39
2018-04-22T09:20:58.167Z,52.07
2018-04-22T09:21:58.173Z,52.45
2018-04-22T09:22:59.669Z,52.29
2018-04-22T09:23:58.670Z,53.55
2018-04-22T09:24:58.667Z,54.32
2018-04-22T09:25:58.666Z,52.67
2018-04-22T09:26:59.165Z,51.90
2018-04-22T09:27:59.193Z,52.19
2018-04-22T09:28:59.171Z,51.61
2018-04-22T09:29:59.167Z,51.61
2018-04-22T09:30:59.668Z,52.19
2018-04-22T09:32:00.100Z,53.25
2018-04-22T09:32:59.676Z,52.87
2018-04-22T09:33:59.669Z,52.31
2018-04-22T09:35:00.167Z,52.22
2018-04-22T09:36:00.168Z,53.38
2018-04-22T09:37:00.167Z,52.53
2018-04-22T09:38:00.168Z,51.06
2018-04-22T09:39:00.669Z,51.56
2018-04-22T09:40:00.668Z,51.25
2018-04-22T09:41:00.673Z,52.51
2018-04-22T09:42:00.668Z,52.44
2018-04-22T09:43:22.175Z,51.93
2018-04-22T09:44:01.161Z,51.66
2018-04-22T09:45:01.602Z,52.73
2018-04-22T09:46:01.168Z,52.53
2018-04-22T09:47:01.168Z,50.70
2018-04-22T09:48:22.668Z,50.98
2018-04-22T09:49:01.669Z,49.34
2018-04-22T09:50:01.724Z,50.50
2018-04-22T09:51:02.175Z,50.12
2018-04-22T09:52:02.175Z,51.56
2018-04-22T09:53:02.174Z,52.27
2018-04-22T09:54:02.183Z,52.08
2018-04-22T09:55:02.167Z,52.08
2018-04-22T09:56:02.669Z,51.72
2018-04-22T09:57:02.668Z,51.72
2018-04-22T09:58:02.672Z,51.10
2018-04-22T09:59:02.669Z,52.78
2018-04-22T10:01:03.170Z,48.81
2018-04-22T10:02:03.169Z,48.22
2018-04-22T10:03:03.670Z,50.62
2018-04-22T10:04:03.669Z,50.74
2018-04-22T10:05:03.666Z,50.84
2018-04-22T10:06:03.669Z,51.04
2018-04-22T10:07:03.668Z,52.58
2018-04-22T10:08:04.167Z,51.52
2018-04-22T10:09:04.171Z,50.67
2018-04-22T10:10:04.176Z,49.22
2018-04-22T10:11:04.169Z,49.70
2018-04-22T10:12:04.670Z,51.57
2018-04-22T10:13:04.672Z,48.44
2018-04-22T10:14:04.680Z,49.51
2018-04-22T10:15:04.669Z,48.93
2018-04-22T10:16:05.170Z,49.70
2018-04-22T10:17:05.167Z,51.74
2018-04-22T10:18:05.169Z,50.96
2018-04-22T10:19:26.169Z,48.64
2018-04-22T10:20:05.669Z,47.77
2018-04-22T10:21:05.671Z,48.54
2018-04-22T10:22:05.669Z,49.02
2018-04-22T10:23:05.672Z,49.92
2018-04-22T10:24:06.669Z,49.34
2018-04-22T10:25:06.174Z,49.34
2018-04-22T10:26:06.169Z,47.79
2018-04-22T10:27:06.169Z,48.76
2018-04-22T10:28:06.670Z,47.69
2018-04-22T10:29:06.669Z,47.72
2018-04-22T10:30:06.534Z,46.75
2018-04-22T10:31:06.670Z,46.45
2018-04-22T10:32:28.170Z,47.62
2018-04-22T10:33:07.172Z,47.33
2018-04-22T10:34:07.177Z,47.79
2018-04-22T10:35:07.670Z,45.97
2018-04-22T10:36:07.711Z,45.58
2018-04-22T10:37:07.668Z,47.62
2018-04-22T10:38:07.671Z,47.62
2018-04-22T10:39:07.671Z,46.65
2018-04-22T10:40:08.219Z,45.78
2018-04-22T10:41:08.171Z,45.48
2018-04-22T10:42:08.170Z,44.61
2018-04-22T10:43:08.171Z,45.10
2018-04-22T10:44:08.674Z,44.23
2018-04-22T10:45:08.673Z,44.13
2018-04-22T10:46:08.671Z,45.89
2018-04-22T10:47:08.670Z,46.77
2018-04-22T10:48:09.171Z,45.89
2018-04-22T10:49:09.173Z,44.34
2018-04-22T10:50:09.177Z,44.24
2018-04-22T10:51:09.183Z,46.01
2018-04-22T10:52:09.671Z,45.34
2018-04-22T10:53:09.671Z,44.27
2018-04-22T10:54:09.681Z,45.14
2018-04-22T10:55:09.682Z,47.28
2018-04-22T10:56:10.173Z,46.72
2018-04-22T10:57:10.171Z,44.29
2018-04-22T10:58:10.255Z,46.62
2018-04-22T10:59:10.182Z,45.84
2018-04-22T11:00:10.681Z,44.87
2018-04-22T11:01:10.672Z,44.29
2018-04-22T11:02:10.530Z,40.50
2018-04-22T11:03:31.673Z,40.99
2018-04-22T11:04:11.180Z,39.75
2018-04-22T11:05:11.172Z,40.89
2018-04-22T11:06:11.174Z,40.99
2018-04-22T11:07:13.145Z,40.52
2018-04-22T11:08:11.688Z,41.49
2018-04-22T11:09:11.673Z,41.96
2018-04-22T11:10:11.671Z,39.75
2018-04-22T11:11:11.677Z,37.98
2018-04-22T11:12:12.173Z,40.11
2018-04-22T11:13:12.175Z,38.95
2018-04-22T11:14:12.176Z,39.34
2018-04-22T11:15:12.675Z,38.27
2018-04-22T11:16:12.672Z,38.96
2018-04-22T11:17:12.672Z,38.29
2018-04-22T11:18:12.672Z,39.84
2018-04-22T11:19:12.672Z,40.52
2018-04-22T11:20:13.178Z,38.48
2018-04-22T11:21:13.172Z,39.45
2018-04-22T11:22:13.173Z,38.89
2018-04-22T11:23:13.173Z,37.43
2018-04-22T11:24:13.682Z,39.18
2018-04-22T11:25:13.673Z,39.96
2018-04-22T11:26:13.677Z,39.18
2018-04-22T11:27:13.672Z,34.20
2018-04-22T11:28:14.173Z,34.42
2018-04-22T11:29:14.179Z,36.36
2018-04-22T11:30:14.174Z,37.35
2018-04-22T11:31:14.673Z,34.52
2018-04-22T11:32:14.673Z,34.33
2018-04-22T11:33:14.673Z,33.56
2018-04-22T11:34:14.673Z,33.86
2018-04-22T11:35:14.681Z,33.78
2018-04-22T11:36:15.176Z,32.15
2018-04-22T11:37:15.173Z,34.40
2018-04-22T11:38:15.173Z,35.18
2018-04-22T11:39:15.177Z,34.52
2018-04-22T11:40:15.674Z,34.79
2018-04-22T11:41:15.679Z,32.47
2018-04-22T11:42:15.673Z,34.92
2018-04-22T11:43:15.673Z,31.49
2018-04-22T11:44:16.179Z,30.44
2018-04-22T11:45:16.174Z,30.86
2018-04-22T11:46:16.177Z,31.26
2018-04-22T11:47:17.175Z,29.21
2018-04-22T11:48:16.673Z,30.48
2018-04-22T11:49:16.677Z,31.84
2018-04-22T11:50:16.674Z,30.76
2018-04-22T11:51:16.676Z,31.80
2018-04-22T11:52:17.174Z,32.55
2018-04-22T11:53:17.178Z,33.62
2018-04-22T11:54:17.176Z,33.78
2018-04-22T11:55:17.179Z,32.42
2018-04-22T11:56:17.675Z,33.14
2018-04-22T11:57:17.677Z,32.67
2018-04-22T11:58:17.674Z,31.31
2018-04-22T11:59:17.675Z,32.48
2018-04-22T12:00:18.184Z,30.84
2018-04-22T12:01:18.183Z,30.19
2018-04-22T12:02:18.222Z,30.59
2018-04-22T12:03:18.674Z,29.93
2018-04-22T12:04:18.680Z,30.51
2018-04-22T12:05:18.682Z,28.64
2018-04-22T12:06:18.675Z,29.70
2018-04-22T12:07:18.674Z,29.88
2018-04-22T12:08:19.175Z,30.66
2018-04-22T12:09:19.178Z,31.15
2018-04-22T12:10:19.176Z,30.76
2018-04-22T12:11:19.178Z,30.57
2018-04-22T12:12:19.675Z,31.95
2018-04-22T12:13:19.673Z,31.88
2018-04-22T12:14:19.674Z,30.40
2018-04-22T12:15:40.675Z,29.34
2018-04-22T12:16:20.180Z,27.78
2018-04-22T12:17:20.175Z,26.61
2018-04-22T12:18:20.176Z,26.44
2018-04-22T12:19:20.176Z,26.62
2018-04-22T12:20:20.674Z,26.25
2018-04-22T12:21:20.677Z,25.96
2018-04-22T12:22:20.675Z,26.44
2018-04-22T12:23:20.675Z,26.05
2018-04-22T12:24:42.177Z,25.65
2018-04-22T12:25:21.182Z,25.37
2018-04-22T12:26:21.176Z,24.47
2018-04-22T12:27:21.166Z,25.34
2018-04-22T12:28:23.608Z,26.03
2018-04-22T12:29:22.108Z,26.34
2018-04-22T12:30:21.681Z,26.67
2018-04-22T12:31:22.674Z,28.33
2018-04-22T12:32:22.176Z,29.11
2018-04-22T12:33:22.198Z,25.79
2018-04-22T12:34:22.176Z,23.35
2018-04-22T12:35:43.684Z,23.67
2018-04-22T12:36:43.676Z,22.10
2018-04-22T12:37:22.676Z,20.62
2018-04-22T12:38:22.676Z,19.65
2018-04-22T12:39:22.677Z,21.42
2018-04-22T12:40:23.176Z,21.04
2018-04-22T12:41:23.179Z,21.53
2018-04-22T12:42:23.175Z,21.14
2018-04-22T12:43:23.176Z,18.77
2018-04-22T12:44:23.676Z,20.34
2018-04-22T12:45:23.686Z,21.52
2018-04-22T12:46:23.676Z,20.34
2018-04-22T12:47:24.176Z,19.46
2018-04-22T12:48:24.176Z,19.85
2018-04-22T12:49:24.175Z,18.58
2018-04-22T12:50:24.170Z,17.89
2018-04-22T12:51:24.174Z,18.49
2018-04-22T12:52:24.676Z,20.75
2018-04-22T12:53:24.675Z,19.26
2018-04-22T12:54:24.676Z,21.42
2018-04-22T12:55:25.675Z,19.35
2018-04-22T12:56:25.175Z,19.06
2018-04-22T12:57:25.175Z,16.59
2018-04-22T12:58:25.175Z,15.41
2018-04-22T12:59:25.678Z,17.96
2018-04-22T13:01:25.674Z,20.21
2018-04-22T13:02:25.679Z,17.27
2018-04-22T13:03:25.674Z,17.86
2018-04-22T13:04:26.175Z,20.14
2018-04-22T13:05:26.180Z,18.77
2018-04-22T13:06:26.174Z,15.63
2018-04-22T13:07:26.174Z,15.93
2018-04-22T13:08:27.107Z,15.64
2018-04-22T13:09:26.674Z,17.71
2018-04-22T13:10:26.667Z,18.71
2018-04-22T13:11:27.179Z,16.64
2018-04-22T13:12:27.184Z,14.74
2018-04-22T13:13:27.173Z,17.79
2018-04-22T13:14:27.182Z,17.91
2018-04-22T13:15:48.174Z,17.52
2018-04-22T13:16:27.673Z,16.53
2018-04-22T13:17:27.674Z,17.52
2018-04-22T13:18:27.679Z,15.64
2018-04-22T13:19:27.673Z,17.11
2018-04-22T13:20:28.173Z,18.19
2018-04-22T13:21:28.173Z,18.31
2018-04-22T13:22:28.183Z,17.82
2018-04-22T13:23:28.674Z,17.23
2018-04-22T13:24:28.673Z,17.83
2018-04-22T13:25:28.677Z,17.05
2018-04-22T13:26:28.682Z,14.97
2018-04-22T13:27:28.676Z,16.44
2018-04-22T13:28:29.173Z,18.32
2018-04-22T13:29:28.947Z,15.36
2018-04-22T13:30:29.062Z,16.83
2018-04-22T13:31:29.680Z,14.87
2018-04-22T13:32:29.673Z,14.97
2018-04-22T13:33:29.673Z,15.83
2018-04-22T13:34:29.681Z,17.38
2018-04-22T13:35:30.183Z,19.73
2018-04-22T13:36:30.173Z,20.70
2018-04-22T13:37:30.173Z,20.59
2018-04-22T13:38:30.168Z,17.65
2018-04-22T13:39:30.171Z,17.85
2018-04-22T13:40:30.673Z,20.99
2018-04-22T13:41:30.672Z,19.12
2018-04-22T13:42:30.678Z,17.76
2018-04-22T13:43:30.713Z,17.68
2018-04-22T13:44:31.170Z,17.60
2018-04-22T13:45:31.175Z,18.98
2018-04-22T13:46:31.181Z,17.50
2018-04-22T13:47:31.673Z,19.27
2018-04-22T13:48:31.672Z,14.94
2018-04-22T13:49:31.685Z,14.15
2018-04-22T13:50:31.674Z,14.66
2018-04-22T13:51:32.129Z,15.16
2018-04-22T13:52:32.172Z,13.69
2018-04-22T13:53:32.172Z,14.47
2018-04-22T13:54:32.172Z,16.44
2018-04-22T13:55:32.173Z,16.55
2018-04-22T13:56:32.672Z,17.25
2018-04-22T13:57:32.673Z,16.85
2018-04-22T13:58:32.671Z,13.98
2018-04-22T13:59:33.172Z,15.17
2018-04-22T14:00:35.637Z,16.46
2018-04-22T14:01:33.173Z,14.57
2018-04-22T14:02:33.200Z,14.67
2018-04-22T14:03:33.171Z,13.19
2018-04-22T14:04:33.671Z,12.01
2018-04-22T14:05:33.673Z,13.98
2018-04-22T14:06:33.678Z,14.69
2018-04-22T14:07:34.671Z,17.35
2018-04-22T14:08:34.170Z,13.31
2018-04-22T14:09:34.171Z,13.41
2018-04-22T14:10:34.177Z,14.98
2018-04-22T14:11:34.674Z,14.00
2018-04-22T14:12:34.670Z,11.33
2018-04-22T14:13:34.670Z,12.12
2018-04-22T14:14:34.673Z,14.39
2018-04-22T14:15:34.669Z,15.67
2018-04-22T14:16:35.169Z,12.41
2018-04-22T14:17:35.169Z,13.49
2018-04-22T14:18:35.169Z,13.50
2018-04-22T14:19:35.164Z,13.01
2018-04-22T14:20:35.669Z,12.72
2018-04-22T14:21:35.669Z,13.00
2018-04-22T14:22:35.674Z,12.81
2018-04-22T14:23:35.668Z,12.22
2018-04-22T14:24:36.168Z,13.31
2018-04-22T14:25:36.175Z,14.19
2018-04-22T14:26:36.180Z,12.81
2018-04-22T14:27:36.667Z,10.53
2018-04-22T14:28:36.671Z,12.70
2018-04-22T14:29:37.137Z,14.26
2018-04-22T14:30:36.664Z,13.17
2018-04-22T14:31:36.708Z,12.59
2018-04-22T14:32:37.167Z,12.48
2018-04-22T14:33:37.171Z,15.23
2018-04-22T14:34:38.168Z,13.96
2018-04-22T14:35:44.167Z,15.92
2018-04-22T14:36:37.667Z,17.02
2018-04-22T14:37:37.667Z,13.66
2018-04-22T14:38:37.671Z,14.24
2018-04-22T14:39:38.171Z,16.19
2018-04-22T14:40:38.167Z,17.76
2018-04-22T14:41:38.168Z,18.04
2018-04-22T14:42:38.172Z,18.72
2018-04-22T14:43:38.168Z,18.41
2018-04-22T14:44:39.675Z,16.92